createdAt,value
2023-04-06T00:04:58.584Z,4.47
2023-04-06T00:10:00.145Z,4.53
2023-04-06T00:15:02.537Z,4.50
2023-04-06T00:20:04.070Z,5.00
2023-04-06T00:25:05.894Z,5.10
2023-04-06T00:30:07.978Z,4.83
2023-04-06T00:35:09.602Z,5.23
2023-04-06T00:40:11.295Z,4.97
2023-04-06T00:45:13.809Z,5.13
2023-04-06T00:50:15.491Z,4.83
2023-04-06T00:55:16.877Z,5.20
2023-04-06T01:00:18.817Z,5.33
2023-04-06T01:05:21.557Z,4.90
2023-04-06T01:10:23.803Z,4.93
2023-04-06T01:15:26.858Z,5.20
2023-04-06T01:20:28.698Z,5.73
2023-04-06T01:25:30.146Z,4.97
2023-04-06T01:30:31.531Z,4.83
2023-04-06T01:35:33.267Z,4.30
2023-04-06T01:40:34.749Z,5.17
2023-04-06T01:45:36.618Z,5.17
2023-04-06T01:50:38.043Z,5.63
2023-04-06T01:55:39.496Z,5.27
2023-04-06T02:00:41.284Z,5.77
2023-04-06T02:05:42.704Z,4.80
2023-04-06T02:10:44.135Z,5.70
2023-04-06T02:15:45.577Z,5.87
2023-04-06T02:20:47.251Z,6.03
2023-04-06T02:25:48.716Z,5.93
2023-04-06T02:30:50.504Z,5.23
2023-04-06T02:35:51.939Z,5.67
2023-04-06T02:40:53.406Z,5.50
2023-04-06T02:45:55.007Z,5.57
2023-04-06T02:50:56.668Z,6.10
2023-04-06T02:55:58.065Z,5.70
2023-04-06T03:00:59.488Z,6.23
2023-04-06T03:06:01.213Z,6.00
2023-04-06T03:11:02.677Z,6.13
2023-04-06T03:16:04.520Z,6.20
2023-04-06T03:21:06.089Z,6.87
2023-04-06T03:26:07.461Z,7.67
2023-04-06T03:31:08.981Z,8.90
2023-04-06T03:36:10.640Z,11.57
2023-04-06T03:41:12.093Z,11.10
2023-04-06T03:46:13.512Z,10.93
2023-04-06T03:51:14.954Z,11.33
2023-04-06T03:56:16.387Z,10.80
2023-04-06T04:01:19.236Z,10.07
2023-04-06T04:06:20.727Z,11.87
2023-04-06T04:11:22.138Z,13.20
2023-04-06T04:16:23.625Z,12.63
2023-04-06T04:21:26.434Z,12.37
2023-04-06T04:26:27.846Z,12.83
2023-04-06T04:31:29.328Z,12.53
2023-04-06T04:36:30.849Z,14.07
2023-04-06T04:41:32.346Z,13.43
2023-04-06T04:46:33.721Z,15.67
2023-04-06T04:51:35.481Z,15.50
2023-04-06T04:56:36.901Z,17.97
2023-04-06T05:01:53.544Z,17.90
2023-04-06T05:07:08.949Z,19.03
2023-04-06T05:12:10.715Z,18.35
2023-04-06T05:17:12.239Z,18.80
2023-04-06T05:22:15.234Z,18.93
2023-04-06T05:27:16.755Z,18.40
2023-04-06T05:32:22.956Z,17.63
2023-04-06T05:37:24.374Z,19.27
2023-04-06T05:42:25.793Z,20.03
2023-04-06T05:47:27.322Z,21.47
2023-04-06T05:52:28.724Z,20.20
2023-04-06T05:57:30.329Z,19.37
2023-04-06T06:02:32.191Z,19.20
2023-04-06T06:07:34.041Z,21.47
2023-04-06T06:12:35.457Z,19.27
2023-04-06T06:17:38.934Z,18.67
2023-04-06T06:22:41.239Z,14.77
2023-04-06T06:27:43.348Z,13.77
2023-04-06T06:32:44.829Z,13.37
2023-04-06T06:37:46.404Z,12.10
2023-04-06T06:42:47.864Z,12.20
2023-04-06T06:47:49.397Z,14.67
2023-04-06T06:52:51.008Z,12.47
2023-04-06T06:57:52.483Z,12.80
2023-04-06T07:02:53.957Z,12.47
2023-04-06T07:07:56.145Z,12.00
2023-04-06T07:12:57.713Z,11.97
2023-04-06T07:18:00.575Z,10.83
2023-04-06T07:23:03.526Z,12.80
2023-04-06T07:28:05.003Z,11.57
2023-04-06T07:33:06.752Z,9.80
2023-04-06T07:38:08.378Z,10.85
2023-04-06T07:43:09.842Z,9.50
2023-04-06T07:48:11.340Z,9.65
2023-04-06T07:53:12.824Z,9.75
2023-04-06T07:58:14.241Z,9.63
2023-04-06T08:03:16.087Z,9.10
2023-04-06T08:08:17.934Z,9.13
2023-04-06T08:13:19.373Z,8.98
2023-04-06T08:18:21.050Z,8.48
2023-04-06T08:23:22.565Z,7.15
2023-04-06T08:28:24.100Z,7.95
2023-04-06T08:33:25.902Z,8.23
2023-04-06T08:38:27.426Z,7.75
2023-04-06T08:43:29.472Z,7.80
2023-04-06T08:48:30.952Z,7.20
2023-04-06T08:53:32.402Z,7.63
2023-04-06T08:58:39.975Z,7.20
2023-04-06T09:03:42.158Z,7.22
2023-04-06T09:08:43.891Z,8.48
2023-04-06T09:13:52.069Z,8.35
2023-04-06T09:18:53.607Z,6.70
2023-04-06T09:24:02.044Z,7.28
2023-04-06T09:29:04.445Z,5.88
2023-04-06T09:34:06.821Z,6.30
2023-04-06T09:39:08.567Z,6.07
2023-04-06T09:44:11.173Z,5.03
2023-04-06T09:49:14.464Z,5.05
2023-04-06T09:54:19.739Z,5.15
2023-04-06T09:59:31.239Z,5.47
2023-04-06T10:04:35.816Z,4.55
2023-04-06T10:09:38.052Z,5.13
2023-04-06T10:14:40.243Z,3.92
2023-04-06T10:19:56.303Z,3.97
2023-04-06T10:24:57.810Z,3.08
2023-04-06T10:30:03.572Z,2.85
2023-04-06T10:35:11.738Z,3.22
2023-04-06T10:40:28.608Z,3.13
2023-04-06T10:45:32.253Z,2.83
2023-04-06T10:50:34.488Z,3.78
2023-04-06T10:55:35.975Z,3.22
2023-04-06T11:00:50.216Z,3.38
2023-04-06T11:05:52.776Z,3.03
2023-04-06T11:11:06.767Z,3.53
2023-04-06T11:21:09.627Z,3.83
2023-04-06T11:26:11.841Z,3.38
2023-04-06T11:31:13.355Z,3.63
2023-04-06T11:36:16.467Z,3.53
2023-04-06T11:41:18.844Z,4.30
2023-04-06T11:46:20.803Z,4.43
2023-04-06T11:51:25.378Z,3.92
2023-04-06T11:56:30.381Z,4.45
2023-04-06T12:01:36.855Z,4.13
2023-04-06T12:06:40.617Z,4.15
2023-04-06T12:11:42.079Z,5.30
2023-04-06T12:16:43.479Z,6.57
2023-04-06T12:21:44.880Z,5.95
2023-04-06T12:26:47.083Z,7.25
2023-04-06T12:31:49.785Z,7.40
2023-04-06T12:36:51.485Z,7.15
2023-04-06T12:41:53.652Z,6.35
2023-04-06T12:46:55.210Z,5.90
2023-04-06T12:51:56.972Z,6.72
2023-04-06T12:56:58.733Z,7.70
2023-04-06T13:02:00.417Z,6.75
2023-04-06T13:07:01.820Z,6.80
2023-04-06T13:12:03.437Z,6.20
2023-04-06T13:17:04.985Z,6.93
2023-04-06T13:22:06.432Z,6.60
2023-04-06T13:27:07.987Z,7.35
2023-04-06T13:32:11.274Z,7.00
2023-04-06T13:37:14.078Z,8.50
2023-04-06T13:42:15.848Z,7.07
2023-04-06T13:47:17.576Z,6.60
2023-04-06T13:52:19.592Z,7.47
2023-04-06T13:57:21.216Z,6.78
2023-04-06T14:02:28.158Z,7.05
2023-04-06T14:07:29.902Z,7.82
2023-04-06T14:12:32.702Z,7.65
2023-04-06T14:17:34.242Z,7.32
2023-04-06T14:22:36.350Z,7.60
2023-04-06T14:27:37.923Z,7.18
2023-04-06T14:32:39.595Z,7.55
2023-04-06T14:37:41.307Z,7.70
2023-04-06T14:42:42.684Z,5.70
2023-04-06T14:47:44.097Z,6.82
2023-04-06T14:52:47.177Z,7.05
2023-04-06T14:57:48.611Z,6.78
2023-04-06T15:02:50.121Z,7.28
2023-04-06T15:07:51.623Z,7.05
2023-04-06T15:12:53.178Z,7.47
2023-04-06T15:17:54.733Z,7.88
2023-04-06T15:22:56.269Z,7.32
2023-04-06T15:27:59.626Z,8.55
2023-04-06T15:33:02.363Z,6.72
2023-04-06T15:38:03.766Z,7.03
2023-04-06T15:43:06.263Z,7.15
2023-04-06T15:48:08.015Z,6.95
2023-04-06T15:53:09.519Z,7.10
2023-04-06T15:58:11.063Z,7.07
2023-04-06T16:03:12.666Z,6.75
2023-04-06T16:08:15.354Z,7.50
2023-04-06T16:13:16.734Z,6.80
2023-04-06T16:18:18.602Z,7.20
2023-04-06T16:23:20.059Z,6.60
2023-04-06T16:28:23.192Z,6.05
2023-04-06T16:33:24.763Z,6.25
2023-04-06T16:38:30.046Z,6.35
2023-04-06T16:43:32.267Z,6.40
2023-04-06T16:48:33.758Z,6.35
2023-04-06T16:53:35.630Z,6.32
2023-04-06T16:58:37.785Z,5.97
2023-04-06T17:03:39.350Z,6.35
2023-04-06T17:08:45.078Z,6.05
2023-04-06T17:13:48.529Z,6.50
2023-04-06T17:18:50.306Z,7.37
2023-04-06T17:23:51.799Z,12.50
2023-04-06T17:28:53.252Z,7.00
2023-04-06T17:33:54.697Z,6.82
2023-04-06T17:38:56.278Z,6.07
2023-04-06T17:43:57.701Z,6.90
2023-04-06T17:48:59.147Z,6.50
2023-04-06T17:54:00.586Z,7.45
2023-04-06T17:59:02.649Z,7.80
2023-04-06T18:04:04.058Z,7.35
2023-04-06T18:09:05.482Z,7.50
2023-04-06T18:14:12.471Z,7.57
2023-04-06T18:19:14.549Z,9.02
2023-04-06T18:24:27.366Z,13.20
2023-04-06T18:29:35.020Z,9.00
2023-04-06T18:34:36.530Z,9.65
2023-04-06T18:39:37.949Z,8.50
2023-04-06T18:44:39.291Z,9.23
2023-04-06T18:49:40.672Z,9.55
2023-04-06T18:54:42.544Z,9.68
2023-04-06T18:59:43.914Z,11.18
2023-04-06T19:04:45.343Z,9.82
2023-04-06T19:09:46.997Z,9.13
2023-04-06T19:14:51.885Z,9.80
2023-04-06T19:19:53.289Z,8.23
2023-04-06T19:24:54.848Z,8.88
2023-04-06T19:29:56.611Z,8.48
2023-04-06T19:34:59.674Z,8.70
2023-04-06T19:40:01.194Z,7.35
2023-04-06T19:45:02.658Z,8.35
2023-04-06T19:50:05.589Z,8.52
2023-04-06T19:55:07.255Z,8.13
2023-04-06T20:00:09.177Z,8.00
2023-04-06T20:05:10.678Z,8.17
2023-04-06T20:10:12.246Z,8.03
2023-04-06T20:15:13.846Z,8.93
2023-04-06T20:20:15.458Z,8.03
2023-04-06T20:25:17.800Z,7.70
2023-04-06T20:30:19.202Z,8.17
2023-04-06T20:35:20.776Z,7.60
2023-04-06T20:40:22.353Z,7.87
2023-04-06T20:45:25.123Z,7.37
2023-04-06T20:50:26.630Z,8.10
2023-04-06T20:55:28.116Z,8.63
2023-04-06T21:00:29.523Z,8.20
2023-04-06T21:05:30.959Z,7.57
2023-04-06T21:10:32.354Z,8.13
2023-04-06T21:15:33.812Z,7.73
2023-04-06T21:20:35.478Z,7.43
2023-04-06T21:25:37.464Z,7.70
2023-04-06T21:30:39.084Z,7.33
2023-04-06T21:35:40.932Z,7.20
2023-04-06T21:40:42.462Z,8.03
2023-04-06T21:45:48.549Z,7.83
2023-04-06T21:50:50.015Z,7.83
2023-04-06T21:55:51.592Z,7.47
2023-04-06T22:00:52.962Z,7.73
2023-04-06T22:05:54.382Z,7.67
2023-04-06T22:10:55.877Z,8.67
2023-04-06T22:15:57.557Z,8.80
2023-04-06T22:20:59.218Z,8.70
2023-04-06T22:26:00.662Z,8.03
2023-04-06T22:31:02.212Z,8.00
2023-04-06T22:36:03.797Z,8.87
2023-04-06T22:41:06.656Z,8.10
2023-04-06T22:46:10.296Z,7.73
2023-04-06T22:51:11.668Z,7.43
2023-04-06T22:56:13.128Z,7.70
2023-04-06T23:01:14.645Z,8.03
2023-04-06T23:06:16.401Z,8.03
2023-04-06T23:11:17.955Z,8.23
2023-04-06T23:16:19.404Z,8.13
2023-04-06T23:21:21.190Z,7.50
2023-04-06T23:26:24.434Z,8.80
2023-04-06T23:31:25.814Z,8.37
2023-04-06T23:36:27.648Z,8.40
2023-04-06T23:41:29.116Z,7.87
2023-04-06T23:46:30.552Z,8.40
2023-04-06T23:51:32.021Z,8.43
2023-04-06T23:56:33.554Z,9.27
